Latest Weather Observations for Darwin Airport

IDD60801

Issued at 10:31 am CST Wednesday 28 January 2015 (issued every 30 minutes, with the page automatically refreshed every 10 minutes)

About weather observations | Map of weather stations | Latest weather observations for NT | Other Formats
Station Details ID: 014015 Name: DARWIN AIRPORT Lat: -12.42 Lon: 130.89 Height: 30.4 m
Data from the previous 72 hours. | See also: Recent months at Darwin Airport
Date/Time
CST
Temp
°C
App
Temp
°C
Dew
Point
Rel
Hum
%
Delta-T
°C
Wind Press
QNH
hPa
Press
MSL
hPa
Rain
since 9 am
mm
Dir
 
Spd
km/h
Gust
km/h
Spd
kts
Gust
kts
28/10:00am 29.7 33.7 24.4 73 3.7 WNW 11 20 6 11 1006.4 - 0.0
28/09:30am 29.0 33.6 24.1 75 3.4 SSW 7 9 4 5 1006.3 - 0.0
28/09:00am 28.3 32.9 24.1 78 2.9 SSW 7 11 4 6 1006.3 1006.0 11.6
28/08:00am 26.8 31.6 25.1 90 1.2 SSW 9 11 5 6 1005.8 - 11.6
28/07:30am 26.1 31.2 25.0 94 0.8 SSW 7 9 4 5 1005.3 - 11.6
28/07:00am 24.8 29.7 24.4 98 0.3 SSW 6 7 3 4 1004.8 - 11.6
28/06:30am 24.7 30.7 24.3 98 0.3 CALM 0 4 0 2 1004.6 - 11.6
28/06:00am 25.0 29.8 24.4 96 0.4 SSW 7 9 4 5 1004.4 1004.1 11.6
28/05:30am 25.2 30.2 24.5 96 0.5 SSW 6 7 3 4 1004.3 - 11.6
28/05:00am 25.3 30.4 24.6 96 0.5 SSW 6 7 3 4 1004.0 - 11.6
28/04:00am 26.1 30.7 24.7 92 1.0 WSW 9 11 5 6 1004.5 - 11.6
28/03:30am 26.0 30.7 24.9 94 0.8 SW 9 13 5 7 1004.5 - 11.6
28/03:00am 25.9 32.5 25.2 96 0.5 CALM 0 0 0 0 1004.9 1004.6 11.6
28/02:30am 26.0 32.5 25.0 94 0.7 CALM 0 0 0 0 1005.1 - 11.6
28/02:00am 26.5 32.3 25.1 92 1.0 SW 4 9 2 5 1005.5 - 11.6
28/01:30am 26.5 31.3 25.1 92 1.0 WSW 9 11 5 6 1006.1 - 11.6
28/01:00am 26.6 31.5 25.2 92 1.0 SSW 9 9 5 5 1006.3 - 11.6
28/12:30am 26.6 32.0 25.5 94 0.8 SW 7 11 4 6 1007.3 - 11.6
 
Date/Time
CST
Temp
°C
App
Temp
°C
Dew
Point
Rel
Hum
%
Delta-T
°C
Wind Press
QNH
hPa
Press
MSL
hPa
Rain
since 9 am
mm
Dir
 
Spd
km/h
Gust
km/h
Spd
kts
Gust
kts
27/11:30pm 26.8 31.2 25.1 90 1.2 SW 11 13 6 7 1007.6 - 11.6
27/11:00pm 26.7 30.9 24.7 89 1.4 SW 11 15 6 8 1007.7 - 11.6
27/10:30pm 26.8 30.4 24.3 86 1.7 WSW 13 15 7 8 1007.6 - 11.6
27/10:00pm 26.9 30.3 24.0 84 2.0 W 13 15 7 8 1007.6 - 11.6
27/09:30pm 26.9 30.1 23.7 82 2.2 WSW 13 15 7 8 1007.4 - 11.6
27/09:00pm 26.9 30.5 23.7 82 2.2 WSW 11 15 6 8 1007.3 1007.0 11.6
27/08:30pm 26.8 30.2 24.1 85 1.9 W 13 15 7 8 1006.9 - 11.6
27/08:00pm 26.9 30.7 24.0 84 2.0 W 11 15 6 8 1006.3 - 11.6
27/07:30pm 27.2 30.5 23.9 82 2.3 W 13 17 7 9 1005.4 - 11.6
27/07:00pm 27.4 30.5 24.1 82 2.3 WSW 15 17 8 9 1004.8 - 11.6
27/06:30pm 27.7 29.5 23.3 77 3.0 W 19 26 10 14 1004.9 - 11.6
27/06:00pm 27.4 30.0 22.7 75 3.2 W 13 19 7 10 1004.6 1004.3 11.6
27/05:30pm 27.2 29.7 22.5 75 3.2 W 13 15 7 8 1004.1 - 11.6
27/05:00pm 26.7 29.6 23.2 81 2.4 W 13 17 7 9 1004.2 - 11.6
27/04:30pm 26.5 29.3 23.0 81 2.4 W 13 19 7 10 1004.5 - 11.6
27/04:00pm 27.1 29.6 22.4 75 3.2 W 13 15 7 8 1004.9 - 11.6
27/03:30pm 27.1 28.9 22.5 76 3.1 WSW 17 22 9 12 1005.0 - 11.6
27/03:00pm 25.7 28.0 22.7 83 2.0 SW 15 20 8 11 1005.0 1004.7 11.6
27/02:30pm 25.3 27.9 22.6 85 1.8 S 13 17 7 9 1005.4 - 11.6
27/02:00pm 24.0 26.5 22.5 91 1.0 SW 13 15 7 8 1005.8 - 11.6
27/01:30pm 23.3 23.7 22.4 95 0.6 S 24 32 13 17 1006.6 - 11.6
27/01:00pm 23.2 22.1 22.5 96 0.5 SSW 32 39 17 21 1007.6 - 7.2
27/12:30pm 24.0 24.3 23.0 94 0.7 SSW 26 33 14 18 1008.2 - 1.0
27/12:28pm 24.1 24.0 22.9 93 0.8 SSW 28 33 15 18 1008.2 - 0.4
27/12:00pm 24.6 24.3 23.3 92 0.9 S 30 44 16 24 1007.8 1007.5 0.4
27/11:47am 25.0 24.6 23.7 92 0.9 S 32 43 17 23 1007.6 - 0.2
27/11:38am 25.7 24.9 23.4 87 1.6 S 33 48 18 26 1007.8 - 0.0
27/11:30am 26.1 25.5 23.3 84 1.9 S 32 48 17 26 1008.1 - 0.0
27/11:00am 30.7 33.4 24.1 68 4.6 WSW 17 28 9 15 1007.7 - 0.0
27/10:30am 31.2 33.9 24.8 69 4.5 WSW 19 26 10 14 1007.9 - 0.0
27/10:00am 30.3 33.7 25.2 74 3.6 WSW 17 22 9 12 1008.2 - 0.0
27/09:30am 29.6 33.1 25.5 78 2.9 WSW 17 24 9 13 1008.6 - 0.0
27/09:00am 28.8 33.1 26.1 85 1.9 SW 15 20 8 11 1008.4 1008.1 5.8
27/08:30am 28.0 32.4 25.7 87 1.6 SSW 13 17 7 9 1008.4 - 5.8
27/08:00am 28.1 32.8 25.6 86 1.8 SW 11 15 6 8 1008.3 - 5.8
27/07:30am 27.5 32.1 25.4 88 1.5 WSW 11 13 6 7 1007.9 - 5.8
27/07:00am 27.4 32.0 25.3 88 1.5 W 11 15 6 8 1007.6 - 5.8
27/06:30am 27.4 32.2 25.1 87 1.6 W 9 9 5 5 1007.1 - 5.8
27/06:00am 27.5 31.5 25.1 87 1.7 W 13 13 7 7 1007.0 1006.7 5.8
27/05:30am 27.6 30.8 25.5 88 1.5 W 19 28 10 15 1006.5 - 5.8
27/05:00am 27.2 31.3 25.2 89 1.4 W 13 17 7 9 1006.1 - 5.8
27/04:30am 27.2 31.2 25.1 88 1.5 W 13 17 7 9 1006.0 - 5.8
27/04:00am 27.2 30.4 24.9 87 1.6 W 17 22 9 12 1005.9 - 5.8
27/03:30am 27.2 30.4 24.9 87 1.6 W 17 26 9 14 1006.0 - 5.8
27/03:00am 26.9 29.9 24.7 88 1.5 W 17 24 9 13 1006.0 1005.7 5.8
27/02:30am 26.3 29.9 24.3 89 1.4 W 13 15 7 8 1006.2 - 5.8
27/02:00am 25.8 29.9 24.6 93 0.8 W 11 13 6 7 1006.6 - 5.8
27/01:30am 26.1 30.7 24.8 92 0.9 W 9 13 5 7 1006.9 - 5.8
27/01:00am 26.1 30.5 24.5 91 1.1 W 9 11 5 6 1007.5 - 5.8
27/12:30am 26.4 30.5 24.5 89 1.3 WNW 11 13 6 7 1008.0 - 5.8
27/12:00am 26.8 30.1 24.5 87 1.6 WSW 15 19 8 10 1008.5 1008.2 5.8
 
Date/Time
CST
Temp
°C
App
Temp
°C
Dew
Point
Rel
Hum
%
Delta-T
°C
Wind Press
QNH
hPa
Press
MSL
hPa
Rain
since 9 am
mm
Dir
 
Spd
km/h
Gust
km/h
Spd
kts
Gust
kts
26/11:30pm 26.8 29.4 24.6 88 1.5 SW 19 22 10 12 1008.7 - 5.8
26/11:00pm 26.2 30.3 24.6 91 1.1 W 11 13 6 7 1008.3 - 5.8
26/10:30pm 26.3 30.9 24.7 91 1.1 N 9 11 5 6 1008.0 - 5.8
26/10:00pm 26.4 31.5 25.5 95 0.6 WNW 9 11 5 6 1008.2 - 5.8
26/09:30pm 26.1 30.8 25.0 94 0.8 WSW 9 11 5 6 1008.1 - 5.8
26/09:00pm 26.2 31.0 25.1 94 0.8 W 9 11 5 6 1007.9 1007.6 5.8
26/08:30pm 26.6 33.1 25.0 91 1.1 CALM 0 7 0 4 1007.8 - 5.8
26/08:15pm 27.2 31.8 24.2 84 2.1 S 7 19 4 10 1007.7 - 0.6
26/08:00pm 27.0 33.0 24.3 85 1.9 CALM 0 0 0 0 1007.6 - 0.6
26/07:30pm 27.1 30.7 24.4 85 1.9 SSW 13 15 7 8 1006.6 - 0.6
26/07:00pm 27.3 31.7 24.4 84 2.0 SSW 9 11 5 6 1006.5 - 0.6
26/06:30pm 27.6 31.4 24.1 81 2.4 SSW 11 13 6 7 1006.8 - 0.6
26/06:00pm 27.8 31.6 24.0 80 2.6 SSW 11 13 6 7 1006.8 1006.5 0.6
26/05:30pm 28.2 31.1 23.9 77 3.0 SSW 15 19 8 10 1006.6 - 0.4
26/05:00pm 28.7 32.2 23.6 74 3.5 W 11 15 6 8 1006.3 - 0.4
26/04:30pm 29.0 32.5 23.5 72 3.8 SW 11 15 6 8 1006.1 - 0.4
26/04:00pm 28.3 31.4 23.5 75 3.3 SSE 13 19 7 10 1006.2 - 0.4
26/03:30pm 27.8 30.6 23.7 78 2.8 WNW 15 19 8 10 1006.9 - 0.4
26/03:00pm 26.6 27.3 22.9 80 2.5 W 24 32 13 17 1006.9 1006.6 0.2
26/02:30pm 28.6 30.0 22.9 71 3.9 SW 20 26 11 14 1007.0 - 0.0
26/02:00pm 28.0 29.3 24.6 82 2.4 SW 26 35 14 19 1007.4 - 0.0
26/01:30pm 28.4 29.4 24.2 78 2.9 SSW 26 33 14 18 1007.6 - 0.0
26/01:00pm 32.1 32.9 25.6 68 4.6 WNW 32 39 17 21 1007.7 - 0.0
26/12:30pm 31.2 32.4 25.7 72 3.9 WNW 30 33 16 18 1008.1 - 0.0
26/12:00pm 31.6 33.4 24.9 67 4.7 WNW 24 30 13 16 1008.4 1008.1 0.0
26/11:30am 31.1 33.4 25.0 70 4.3 WNW 22 30 12 16 1008.8 - 0.0
26/11:00am 31.2 33.7 25.9 73 3.8 WNW 24 32 13 17 1009.4 - 0.0
26/10:30am 29.7 31.2 25.6 78 2.9 WNW 28 32 15 17 1009.5 - 0.0
26/10:00am 30.0 33.2 25.8 78 3.0 W 20 28 11 15 1009.5 - 0.0
26/09:30am 29.6 33.1 25.4 78 3.0 W 17 22 9 12 1009.5 - 0.0
26/09:00am 29.0 32.2 25.9 83 2.2 W 20 26 11 14 1009.5 1009.2 33.0
26/08:30am 28.9 32.3 25.9 84 2.1 WNW 19 26 10 14 1009.4 - 32.8
26/08:00am 28.0 32.4 25.7 87 1.6 WSW 13 15 7 8 1008.8 - 32.8
26/07:30am 26.8 31.9 24.6 88 1.5 S 6 11 3 6 1008.7 - 32.8
26/07:00am 25.8 30.6 24.4 92 1.0 SW 7 9 4 5 1008.8 - 32.8
26/06:30am 25.7 30.5 25.1 96 0.4 SW 9 11 5 6 1008.7 - 32.8
26/06:00am 25.2 30.8 24.8 98 0.3 N 4 9 2 5 1008.6 1008.3 32.8
26/05:30am 25.2 30.2 24.8 98 0.3 ENE 7 11 4 6 1008.2 - 32.8
26/05:00am 25.3 30.2 24.7 96 0.4 ENE 7 9 4 5 1008.1 - 32.8
26/04:30am 25.3 30.0 24.9 98 0.3 ESE 9 11 5 6 1007.9 - 32.8
26/04:00am 25.4 30.0 24.8 96 0.4 E 9 11 5 6 1007.8 - 32.8
26/03:30am 25.8 31.1 25.2 96 0.4 E 7 9 4 5 1007.5 - 32.8
26/03:00am 26.1 31.2 25.5 96 0.4 SW 9 11 5 6 1007.7 1007.4 32.8
26/02:30am 25.9 32.5 25.3 96 0.4 CALM 0 0 0 0 1007.9 - 32.8
26/02:00am 25.9 32.5 25.3 96 0.4 CALM 0 0 0 0 1008.3 - 32.8
26/01:30am 25.9 31.2 25.3 96 0.4 WSW 7 7 4 4 1008.6 - 32.8
26/01:00am 26.0 32.7 25.4 96 0.4 CALM 0 2 0 1 1008.8 - 32.8
26/12:30am 26.4 32.2 25.7 96 0.5 SSW 6 7 3 4 1009.3 - 32.8
26/12:00am 26.4 33.3 25.7 96 0.5 CALM 0 0 0 0 1009.6 1009.3 32.8
 
Date/Time
CST
Temp
°C
App
Temp
°C
Dew
Point
Rel
Hum
%
Delta-T
°C
Wind Press
QNH
hPa
Press
MSL
hPa
Rain
since 9 am
mm
Dir
 
Spd
km/h
Gust
km/h
Spd
kts
Gust
kts
25/11:30pm 26.6 32.2 25.7 95 0.6 W 7 7 4 4 1009.8 - 32.8
25/11:00pm 27.3 32.4 25.5 90 1.3 SW 9 13 5 7 1009.7 - 32.8
25/10:30pm 27.3 32.4 25.5 90 1.3 WSW 9 11 5 6 1009.5 - 32.8
25/10:00pm 27.1 31.5 25.1 89 1.4 W 11 13 6 7 1009.3 - 32.8
25/09:30pm 26.9 30.2 24.5 87 1.7 W 15 19 8 10 1009.1 - 32.8
25/09:00pm 26.3 29.0 24.1 88 1.5 W 17 20 9 11 1008.6 1008.3 32.8
25/08:30pm 26.3 29.3 24.0 87 1.6 W 15 19 8 10 1008.6 - 32.8
25/08:00pm 25.4 29.0 23.8 91 1.1 W 11 17 6 9 1008.7 - 32.8
25/07:30pm 25.4 29.0 24.4 94 0.7 SSW 13 17 7 9 1008.4 - 32.8
25/07:10pm 25.4 28.6 24.4 94 0.7 WSW 15 19 8 10 1008.5 - 32.6
25/07:00pm 25.2 28.0 24.3 95 0.6 SW 17 28 9 15 1008.4 - 32.2
25/06:43pm 25.6 28.2 24.6 94 0.7 W 19 33 10 18 1008.6 - 13.4
25/06:38pm 26.0 30.0 25.0 94 0.7 WNW 13 19 7 10 1008.2 - 4.6
25/06:30pm 26.0 28.7 24.7 92 0.9 N 19 28 10 15 1007.6 - 4.4
25/06:20pm 27.5 31.6 24.0 81 2.4 SE 9 17 5 9 1007.7 - 3.4
25/06:14pm 27.7 31.5 24.1 81 2.5 S 11 15 6 8 1007.5 - 3.4
25/06:00pm 27.7 29.9 23.3 77 3.0 S 17 22 9 12 1007.4 1007.1 3.4
25/05:30pm 29.0 32.7 25.8 83 2.3 WNW 17 20 9 11 1007.7 - 3.4
25/05:00pm 28.8 31.7 25.1 80 2.6 W 19 28 10 15 1007.0 - 3.4
25/04:30pm 28.9 28.8 22.9 70 4.1 W 28 33 15 18 1007.1 - 3.4
25/04:00pm 29.7 28.4 23.8 70 4.1 WNW 37 44 20 24 1007.5 - 3.4
25/03:30pm 31.4 32.3 25.8 72 4.0 WNW 32 39 17 21 1007.2 - 3.4
25/03:00pm 30.6 31.5 25.8 75 3.4 WNW 32 41 17 22 1007.5 1007.2 3.4
25/02:30pm 30.4 30.8 25.0 73 3.8 WNW 32 39 17 21 1008.2 - 3.4
25/02:00pm 31.4 31.5 24.9 68 4.6 WNW 33 39 18 21 1008.3 - 3.4
25/01:30pm 31.3 32.8 26.1 74 3.7 WNW 30 37 16 20 1008.5 - 3.4
25/01:00pm 31.7 32.8 25.5 69 4.4 WNW 30 35 16 19 1009.0 - 3.4
25/12:30pm 31.2 32.5 25.3 71 4.2 WNW 28 33 15 18 1009.2 - 3.4
25/12:00pm 30.9 32.0 25.5 73 3.8 WNW 30 35 16 19 1009.3 1009.0 3.4
25/11:30am 30.4 32.1 25.3 74 3.6 WNW 26 32 14 17 1009.8 - 3.4
25/11:00am 30.2 32.7 26.0 78 3.0 WNW 24 30 13 16 1010.3 - 3.2

Other Formats:

Comma delimited format used in spreadsheet applications
http://www.bom.gov.au/fwo/IDD60801/IDD60801.94120.axf

JavaScript Object Notation format (JSON) in row-major order
http://www.bom.gov.au/fwo/IDD60801/IDD60801.94120.json